Terminal Aerodrome Forecast
Issued by NWS

Home | Current Version | Previous Version | Text Only | Print | Product List | Glossary On
Versions: 1 2 3 4 5 6 7 8 9 10 11 12 13 14 15
000
FTUS46 KSEW 191729
TAFHQM
TAF
KHQM 191729Z 1918/2018 15016KT 6SM BR FEW010 BKN013 OVC060
      TEMPO 1918/1922 4SM -SHRA BR OVC010
     FM200300 20010KT P6SM -SHRA BKN020 OVC050=

USA.gov is the U.S. government's official web portal to all federal, state and local government web resources and services.